Terminal Aerodrome Forecast
Issued by NWS Raleigh/Durham, NC

Home | Current Version | Previous Version | Text Only | Print | Product List | Glossary On
Versions: 1 2 3 4 5 6 7 8 9 10 11 12 13 14 15 16 17
000
FTUS42 KRAH 291720
TAFFAY
TAF
KFAY 291720Z 2918/3018 30007KT P6SM SCT040 SCT250
     FM300000 VRB06KT P6SM VCTS BKN040CB
      TEMPO 3000/3004 VRB25G40KT 2SM +SHRA BKN040
     FM300900 VRB03KT P6SM BKN250=

USA.gov is the U.S. government's official web portal to all federal, state and local government web resources and services.